sensor_id;sensor_type;location;lat;lon;timestamp;pressure;altitude;pressure_sealevel;temperature;humidity
13080;BME280;6606;49.154;9.280;2023-06-22T00:01:04;99595.34;;;20.95;100.00
13080;BME280;6606;49.154;9.280;2023-06-22T00:03:46;99596.06;;;20.97;100.00
13080;BME280;6606;49.154;9.280;2023-06-22T00:06:28;99603.00;;;20.90;100.00
13080;BME280;6606;49.154;9.280;2023-06-22T00:09:10;99606.41;;;20.92;100.00
13080;BME280;6606;49.154;9.280;2023-06-22T00:11:51;99620.59;;;20.84;100.00
13080;BME280;6606;49.154;9.280;2023-06-22T00:14:33;99610.00;;;20.83;100.00
13080;BME280;6606;49.154;9.280;2023-06-22T00:17:16;99596.22;;;20.86;100.00
13080;BME280;6606;49.154;9.280;2023-06-22T00:19:58;99587.72;;;20.81;100.00
13080;BME280;6606;49.154;9.280;2023-06-22T00:22:40;99584.63;;;20.76;100.00
13080;BME280;6606;49.154;9.280;2023-06-22T00:25:23;99578.09;;;20.78;100.00
13080;BME280;6606;49.154;9.280;2023-06-22T00:28:05;99572.72;;;20.69;100.00
13080;BME280;6606;49.154;9.280;2023-06-22T00:30:49;99571.56;;;20.71;100.00
13080;BME280;6606;49.154;9.280;2023-06-22T00:33:33;99568.31;;;20.77;100.00
13080;BME280;6606;49.154;9.280;2023-06-22T00:36:20;99576.41;;;20.77;100.00
13080;BME280;6606;49.154;9.280;2023-06-22T00:39:02;99575.81;;;20.74;100.00
13080;BME280;6606;49.154;9.280;2023-06-22T00:41:44;99588.88;;;20.69;100.00
13080;BME280;6606;49.154;9.280;2023-06-22T00:44:26;99591.28;;;20.72;100.00
13080;BME280;6606;49.154;9.280;2023-06-22T00:47:08;99592.56;;;20.68;100.00
13080;BME280;6606;49.154;9.280;2023-06-22T00:49:51;99602.38;;;20.59;100.00
13080;BME280;6606;49.154;9.280;2023-06-22T00:52:35;99592.28;;;20.61;100.00
13080;BME280;6606;49.154;9.280;2023-06-22T00:55:17;99599.09;;;20.55;100.00
13080;BME280;6606;49.154;9.280;2023-06-22T00:57:59;99615.78;;;20.49;100.00
13080;BME280;6606;49.154;9.280;2023-06-22T01:00:41;99621.47;;;20.36;100.00
13080;BME280;6606;49.154;9.280;2023-06-22T01:03:23;99616.06;;;20.36;100.00
13080;BME280;6606;49.154;9.280;2023-06-22T01:06:10;99638.63;;;20.35;100.00
13080;BME280;6606;49.154;9.280;2023-06-22T01:09:00;99687.78;;;20.47;100.00
13080;BME280;6606;49.154;9.280;2023-06-22T01:11:50;99756.09;;;20.46;100.00
13080;BME280;6606;49.154;9.280;2023-06-22T01:14:37;99787.25;;;20.39;100.00
13080;BME280;6606;49.154;9.280;2023-06-22T01:17:23;99768.00;;;20.53;100.00
13080;BME280;6606;49.154;9.280;2023-06-22T01:20:08;99745.94;;;20.59;100.00
13080;BME280;6606;49.154;9.280;2023-06-22T01:23:05;99744.81;;;20.72;100.00
13080;BME280;6606;49.154;9.280;2023-06-22T01:25:57;99719.03;;;20.89;100.00
13080;BME280;6606;49.154;9.280;2023-06-22T01:28:45;99712.22;;;20.94;100.00
13080;BME280;6606;49.154;9.280;2023-06-22T01:31:28;99697.19;;;20.92;100.00
13080;BME280;6606;49.154;9.280;2023-06-22T01:34:12;99690.66;;;20.94;100.00
13080;BME280;6606;49.154;9.280;2023-06-22T01:36:54;99667.41;;;20.93;100.00
13080;BME280;6606;49.154;9.280;2023-06-22T01:39:37;99674.50;;;20.84;100.00
13080;BME280;6606;49.154;9.280;2023-06-22T01:42:18;99680.16;;;20.81;100.00
13080;BME280;6606;49.154;9.280;2023-06-22T01:45:02;99675.91;;;20.79;100.00
13080;BME280;6606;49.154;9.280;2023-06-22T01:47:44;99659.75;;;20.79;100.00
13080;BME280;6606;49.154;9.280;2023-06-22T01:50:26;99652.13;;;20.64;100.00
13080;BME280;6606;49.154;9.280;2023-06-22T01:53:10;99650.69;;;20.60;100.00
13080;BME280;6606;49.154;9.280;2023-06-22T01:55:52;99646.44;;;20.68;100.00
13080;BME280;6606;49.154;9.280;2023-06-22T01:58:37;99640.03;;;20.69;100.00
13080;BME280;6606;49.154;9.280;2023-06-22T02:01:27;99637.22;;;20.60;100.00
13080;BME280;6606;49.154;9.280;2023-06-22T02:04:18;99643.91;;;20.56;100.00
13080;BME280;6606;49.154;9.280;2023-06-22T02:07:05;99644.13;;;20.53;100.00
13080;BME280;6606;49.154;9.280;2023-06-22T02:09:52;99644.13;;;20.53;100.00
13080;BME280;6606;49.154;9.280;2023-06-22T02:12:36;99640.16;;;20.48;100.00
13080;BME280;6606;49.154;9.280;2023-06-22T02:15:19;99643.28;;;20.43;100.00
13080;BME280;6606;49.154;9.280;2023-06-22T02:18:03;99644.00;;;20.35;100.00
13080;BME280;6606;49.154;9.280;2023-06-22T02:20:45;99649.25;;;20.47;100.00
13080;BME280;6606;49.154;9.280;2023-06-22T02:23:27;99650.09;;;20.47;100.00
13080;BME280;6606;49.154;9.280;2023-06-22T02:26:09;99642.00;;;20.37;100.00
13080;BME280;6606;49.154;9.280;2023-06-22T02:28:51;99644.13;;;20.43;100.00
13080;BME280;6606;49.154;9.280;2023-06-22T02:31:33;99649.38;;;20.45;100.00
13080;BME280;6606;49.154;9.280;2023-06-22T02:34:16;99637.19;;;20.41;100.00
13080;BME280;6606;49.154;9.280;2023-06-22T02:36:58;99634.78;;;20.38;100.00
13080;BME280;6606;49.154;9.280;2023-06-22T02:39:40;99632.22;;;20.27;100.00
13080;BME280;6606;49.154;9.280;2023-06-22T02:42:22;99632.66;;;20.22;100.00
13080;BME280;6606;49.154;9.280;2023-06-22T02:45:05;99622.00;;;20.20;100.00
13080;BME280;6606;49.154;9.280;2023-06-22T02:47:47;99623.44;;;20.25;100.00
13080;BME280;6606;49.154;9.280;2023-06-22T02:50:30;99619.44;;;20.19;100.00
13080;BME280;6606;49.154;9.280;2023-06-22T02:53:13;99623.97;;;20.18;100.00
13080;BME280;6606;49.154;9.280;2023-06-22T02:55:59;99615.75;;;20.10;100.00
13080;BME280;6606;49.154;9.280;2023-06-22T02:58:42;99606.38;;;19.95;100.00
13080;BME280;6606;49.154;9.280;2023-06-22T03:01:26;99600.88;;;19.96;100.00
13080;BME280;6606;49.154;9.280;2023-06-22T03:04:09;99608.63;;;19.90;100.00
13080;BME280;6606;49.154;9.280;2023-06-22T03:06:52;99610.63;;;19.88;100.00
13080;BME280;6606;49.154;9.280;2023-06-22T03:09:34;99605.25;;;19.88;100.00
13080;BME280;6606;49.154;9.280;2023-06-22T03:12:15;99610.19;;;19.92;100.00
13080;BME280;6606;49.154;9.280;2023-06-22T03:15:05;99607.81;;;19.99;100.00
13080;BME280;6606;49.154;9.280;2023-06-22T03:17:47;99603.59;;;20.06;100.00
13080;BME280;6606;49.154;9.280;2023-06-22T03:20:29;99607.69;;;20.10;100.00
13080;BME280;6606;49.154;9.280;2023-06-22T03:23:15;99599.78;;;20.09;100.00
13080;BME280;6606;49.154;9.280;2023-06-22T03:25:57;99595.09;;;20.01;100.00
13080;BME280;6606;49.154;9.280;2023-06-22T03:28:39;99596.22;;;20.08;100.00
13080;BME280;6606;49.154;9.280;2023-06-22T03:31:22;99589.59;;;20.22;100.00
13080;BME280;6606;49.154;9.280;2023-06-22T03:34:04;99595.81;;;20.23;100.00
13080;BME280;6606;49.154;9.280;2023-06-22T03:36:46;99594.25;;;20.30;100.00
13080;BME280;6606;49.154;9.280;2023-06-22T03:39:29;99590.44;;;20.23;100.00
13080;BME280;6606;49.154;9.280;2023-06-22T03:42:12;99585.59;;;20.26;100.00
13080;BME280;6606;49.154;9.280;2023-06-22T03:44:54;99582.75;;;20.37;100.00
13080;BME280;6606;49.154;9.280;2023-06-22T03:47:36;99585.19;;;20.40;100.00
13080;BME280;6606;49.154;9.280;2023-06-22T03:50:17;99588.56;;;20.42;100.00
13080;BME280;6606;49.154;9.280;2023-06-22T03:53:00;99575.41;;;20.39;100.00
13080;BME280;6606;49.154;9.280;2023-06-22T03:55:49;99582.34;;;20.42;100.00
13080;BME280;6606;49.154;9.280;2023-06-22T03:58:31;99591.00;;;20.36;100.00
13080;BME280;6606;49.154;9.280;2023-06-22T04:01:14;99586.88;;;20.32;100.00
13080;BME280;6606;49.154;9.280;2023-06-22T04:03:57;99586.59;;;20.35;100.00
13080;BME280;6606;49.154;9.280;2023-06-22T04:06:39;99577.25;;;20.39;100.00
13080;BME280;6606;49.154;9.280;2023-06-22T04:09:20;99583.19;;;20.42;100.00
13080;BME280;6606;49.154;9.280;2023-06-22T04:12:05;99581.50;;;20.51;100.00
13080;BME280;6606;49.154;9.280;2023-06-22T04:14:47;99583.50;;;20.59;100.00
13080;BME280;6606;49.154;9.280;2023-06-22T04:17:28;99577.81;;;20.72;100.00
13080;BME280;6606;49.154;9.280;2023-06-22T04:20:10;99583.88;;;20.83;100.00
13080;BME280;6606;49.154;9.280;2023-06-22T04:22:52;99575.78;;;20.93;100.00
13080;BME280;6606;49.154;9.280;2023-06-22T04:25:38;99562.44;;;21.01;100.00
13080;BME280;6606;49.154;9.280;2023-06-22T04:28:21;99563.13;;;21.03;100.00
13080;BME280;6606;49.154;9.280;2023-06-22T04:31:02;99579.13;;;21.15;100.00
13080;BME280;6606;49.154;9.280;2023-06-22T04:33:45;99581.34;;;21.29;100.00
13080;BME280;6606;49.154;9.280;2023-06-22T04:36:27;99576.19;;;21.45;100.00
13080;BME280;6606;49.154;9.280;2023-06-22T04:39:11;99573.56;;;21.54;100.00
13080;BME280;6606;49.154;9.280;2023-06-22T04:41:52;99568.69;;;21.67;100.00
13080;BME280;6606;49.154;9.280;2023-06-22T04:44:41;99567.25;;;21.72;100.00
13080;BME280;6606;49.154;9.280;2023-06-22T04:47:23;99567.16;;;21.82;100.00
13080;BME280;6606;49.154;9.280;2023-06-22T04:50:05;99556.31;;;21.92;100.00
13080;BME280;6606;49.154;9.280;2023-06-22T04:52:48;99556.47;;;22.08;100.00
13080;BME280;6606;49.154;9.280;2023-06-22T04:55:31;99560.09;;;22.17;100.00
13080;BME280;6606;49.154;9.280;2023-06-22T04:58:12;99557.22;;;22.28;100.00
13080;BME280;6606;49.154;9.280;2023-06-22T05:00:56;99553.09;;;22.42;100.00
13080;BME280;6606;49.154;9.280;2023-06-22T05:03:37;99548.78;;;22.49;100.00
13080;BME280;6606;49.154;9.280;2023-06-22T05:06:22;99553.75;;;22.62;100.00
13080;BME280;6606;49.154;9.280;2023-06-22T05:09:05;99550.50;;;22.76;100.00
13080;BME280;6606;49.154;9.280;2023-06-22T05:11:46;99549.91;;;22.91;100.00
13080;BME280;6606;49.154;9.280;2023-06-22T05:14:28;99554.53;;;22.98;100.00
13080;BME280;6606;49.154;9.280;2023-06-22T05:17:11;99546.69;;;23.13;100.00
13080;BME280;6606;49.154;9.280;2023-06-22T05:19:53;99545.25;;;23.27;100.00
13080;BME280;6606;49.154;9.280;2023-06-22T05:22:37;99537.41;;;23.50;100.00
13080;BME280;6606;49.154;9.280;2023-06-22T05:25:19;99540.72;;;23.44;100.00
13080;BME280;6606;49.154;9.280;2023-06-22T05:28:01;99531.31;;;23.56;100.00
13080;BME280;6606;49.154;9.280;2023-06-22T05:30:46;99535.44;;;23.68;100.00
13080;BME280;6606;49.154;9.280;2023-06-22T05:33:29;99538.53;;;23.90;100.00
13080;BME280;6606;49.154;9.280;2023-06-22T05:36:10;99530.09;;;23.93;100.00
13080;BME280;6606;49.154;9.280;2023-06-22T05:38:53;99538.91;;;24.03;100.00
13080;BME280;6606;49.154;9.280;2023-06-22T05:41:34;99532.47;;;24.04;100.00
13080;BME280;6606;49.154;9.280;2023-06-22T05:44:16;99530.09;;;24.01;100.00
13080;BME280;6606;49.154;9.280;2023-06-22T05:46:57;99535.19;;;24.21;100.00
13080;BME280;6606;49.154;9.280;2023-06-22T05:49:40;99534.88;;;24.32;100.00
13080;BME280;6606;49.154;9.280;2023-06-22T05:52:22;99533.00;;;24.32;100.00
13080;BME280;6606;49.154;9.280;2023-06-22T05:55:05;99521.69;;;24.45;100.00
13080;BME280;6606;49.154;9.280;2023-06-22T05:57:46;99530.31;;;24.57;100.00
13080;BME280;6606;49.154;9.280;2023-06-22T06:00:28;99531.28;;;24.81;100.00
13080;BME280;6606;49.154;9.280;2023-06-22T06:03:10;99529.06;;;24.84;100.00
13080;BME280;6606;49.154;9.280;2023-06-22T06:05:53;99529.91;;;25.01;100.00
13080;BME280;6606;49.154;9.280;2023-06-22T06:08:35;99527.50;;;24.98;100.00
13080;BME280;6606;49.154;9.280;2023-06-22T06:11:17;99517.53;;;24.98;100.00
13080;BME280;6606;49.154;9.280;2023-06-22T06:13:59;99516.97;;;25.03;100.00
13080;BME280;6606;49.154;9.280;2023-06-22T06:16:40;99510.72;;;25.02;100.00
13080;BME280;6606;49.154;9.280;2023-06-22T06:19:26;99518.84;;;25.19;100.00
13080;BME280;6606;49.154;9.280;2023-06-22T06:22:26;99523.94;;;25.22;100.00
13080;BME280;6606;49.154;9.280;2023-06-22T06:25:08;99531.25;;;25.53;100.00
13080;BME280;6606;49.154;9.280;2023-06-22T06:27:51;99526.88;;;25.43;100.00
13080;BME280;6606;49.154;9.280;2023-06-22T06:30:34;99526.00;;;25.51;100.00
13080;BME280;6606;49.154;9.280;2023-06-22T06:33:17;99518.25;;;25.71;100.00
13080;BME280;6606;49.154;9.280;2023-06-22T06:35:59;99524.16;;;25.75;100.00
13080;BME280;6606;49.154;9.280;2023-06-22T06:38:43;99522.59;;;25.88;100.00
13080;BME280;6606;49.154;9.280;2023-06-22T06:41:27;99519.63;;;26.21;100.00
13080;BME280;6606;49.154;9.280;2023-06-22T06:44:09;99507.31;;;26.34;100.00
13080;BME280;6606;49.154;9.280;2023-06-22T06:46:50;99508.91;;;26.05;100.00
13080;BME280;6606;49.154;9.280;2023-06-22T06:49:34;99503.94;;;26.31;100.00
13080;BME280;6606;49.154;9.280;2023-06-22T06:52:16;99507.31;;;26.34;100.00
13080;BME280;6606;49.154;9.280;2023-06-22T06:54:59;99518.94;;;26.65;100.00
13080;BME280;6606;49.154;9.280;2023-06-22T06:57:41;99533.41;;;26.95;100.00
13080;BME280;6606;49.154;9.280;2023-06-22T07:00:23;99540.84;;;26.87;100.00
13080;BME280;6606;49.154;9.280;2023-06-22T07:03:05;99524.19;;;28.78;100.00
13080;BME280;6606;49.154;9.280;2023-06-22T07:05:47;99510.34;;;31.69;100.00
13080;BME280;6606;49.154;9.280;2023-06-22T07:08:29;99504.72;;;33.39;90.52
13080;BME280;6606;49.154;9.280;2023-06-22T07:11:12;99501.38;;;33.37;84.54
13080;BME280;6606;49.154;9.280;2023-06-22T07:13:53;99499.78;;;33.30;80.91
13080;BME280;6606;49.154;9.280;2023-06-22T07:16:35;99482.38;;;34.14;74.07
13080;BME280;6606;49.154;9.280;2023-06-22T07:19:24;99471.00;;;33.32;79.65
13080;BME280;6606;49.154;9.280;2023-06-22T07:22:06;99469.44;;;34.15;76.22
13080;BME280;6606;49.154;9.280;2023-06-22T07:24:47;99461.31;;;34.32;71.30
13080;BME280;6606;49.154;9.280;2023-06-22T07:27:31;99452.47;;;34.18;71.53
13080;BME280;6606;49.154;9.280;2023-06-22T07:30:18;99446.50;;;35.15;65.74
13080;BME280;6606;49.154;9.280;2023-06-22T07:33:00;99457.78;;;35.42;63.47
13080;BME280;6606;49.154;9.280;2023-06-22T07:35:44;99445.91;;;34.54;69.48
13080;BME280;6606;49.154;9.280;2023-06-22T07:38:27;99440.94;;;33.67;71.07
13080;BME280;6606;49.154;9.280;2023-06-22T07:41:09;99444.97;;;33.35;75.38
13080;BME280;6606;49.154;9.280;2023-06-22T07:43:52;99435.16;;;34.65;69.74
13080;BME280;6606;49.154;9.280;2023-06-22T07:46:33;99436.47;;;34.86;67.91
13080;BME280;6606;49.154;9.280;2023-06-22T07:49:16;99420.88;;;34.09;67.51
13080;BME280;6606;49.154;9.280;2023-06-22T07:51:58;99425.22;;;35.68;60.15
13080;BME280;6606;49.154;9.280;2023-06-22T07:54:41;99409.19;;;34.72;67.00
13080;BME280;6606;49.154;9.280;2023-06-22T07:57:23;99410.16;;;36.21;61.91
13080;BME280;6606;49.154;9.280;2023-06-22T08:00:14;99415.84;;;35.69;60.45
13080;BME280;6606;49.154;9.280;2023-06-22T08:02:57;99418.53;;;33.94;68.23
13080;BME280;6606;49.154;9.280;2023-06-22T08:05:39;99418.41;;;32.05;81.45
13080;BME280;6606;49.154;9.280;2023-06-22T08:08:20;99415.50;;;32.25;80.82
13080;BME280;6606;49.154;9.280;2023-06-22T08:11:02;99416.28;;;32.75;80.73
13080;BME280;6606;49.154;9.280;2023-06-22T08:13:44;99411.66;;;34.27;70.90
13080;BME280;6606;49.154;9.280;2023-06-22T08:16:27;99411.50;;;35.44;61.23
13080;BME280;6606;49.154;9.280;2023-06-22T08:19:09;99422.13;;;36.83;56.40
13080;BME280;6606;49.154;9.280;2023-06-22T08:21:50;99414.69;;;35.53;58.45
13080;BME280;6606;49.154;9.280;2023-06-22T08:24:32;99412.38;;;35.91;56.97
13080;BME280;6606;49.154;9.280;2023-06-22T08:27:14;99407.13;;;36.57;51.96
13080;BME280;6606;49.154;9.280;2023-06-22T08:29:57;99405.44;;;36.56;51.92
13080;BME280;6606;49.154;9.280;2023-06-22T08:32:41;99406.75;;;36.53;52.54
13080;BME280;6606;49.154;9.280;2023-06-22T08:35:23;99423.34;;;36.53;51.30
13080;BME280;6606;49.154;9.280;2023-06-22T08:38:04;99433.97;;;36.61;49.41
13080;BME280;6606;49.154;9.280;2023-06-22T08:40:46;99427.50;;;34.43;59.69
13080;BME280;6606;49.154;9.280;2023-06-22T08:43:28;99425.31;;;33.01;70.90
13080;BME280;6606;49.154;9.280;2023-06-22T08:46:09;99412.75;;;33.23;69.51
13080;BME280;6606;49.154;9.280;2023-06-22T08:48:53;99403.16;;;34.99;59.47
13080;BME280;6606;49.154;9.280;2023-06-22T08:51:35;99412.53;;;35.27;59.60
13080;BME280;6606;49.154;9.280;2023-06-22T08:54:16;99414.94;;;35.80;54.98
13080;BME280;6606;49.154;9.280;2023-06-22T08:56:58;99421.47;;;34.34;61.88
13080;BME280;6606;49.154;9.280;2023-06-22T08:59:40;99414.09;;;33.51;67.15
13080;BME280;6606;49.154;9.280;2023-06-22T09:02:21;99432.47;;;33.69;66.81
13080;BME280;6606;49.154;9.280;2023-06-22T09:05:05;99444.38;;;33.33;66.98
13080;BME280;6606;49.154;9.280;2023-06-22T09:07:47;99426.31;;;33.37;67.30
13080;BME280;6606;49.154;9.280;2023-06-22T09:10:29;99444.84;;;33.90;68.79
13080;BME280;6606;49.154;9.280;2023-06-22T09:13:10;99429.91;;;33.98;65.77
13080;BME280;6606;49.154;9.280;2023-06-22T09:15:52;99426.13;;;33.68;66.18
13080;BME280;6606;49.154;9.280;2023-06-22T09:18:34;99442.28;;;33.77;65.18
13080;BME280;6606;49.154;9.280;2023-06-22T09:21:18;99451.38;;;34.07;64.61
13080;BME280;6606;49.154;9.280;2023-06-22T09:24:01;99482.53;;;34.43;64.57
13080;BME280;6606;49.154;9.280;2023-06-22T09:26:44;99491.09;;;34.11;66.77
13080;BME280;6606;49.154;9.280;2023-06-22T09:29:25;99457.59;;;33.24;72.58
13080;BME280;6606;49.154;9.280;2023-06-22T09:32:07;99434.84;;;33.17;69.89
13080;BME280;6606;49.154;9.280;2023-06-22T09:34:49;99433.53;;;33.19;72.00
13080;BME280;6606;49.154;9.280;2023-06-22T09:37:32;99445.91;;;33.10;70.73
13080;BME280;6606;49.154;9.280;2023-06-22T09:40:14;99440.81;;;33.14;70.70
13080;BME280;6606;49.154;9.280;2023-06-22T09:42:57;99410.69;;;33.56;67.13
13080;BME280;6606;49.154;9.280;2023-06-22T09:45:39;99409.38;;;33.58;68.93
13080;BME280;6606;49.154;9.280;2023-06-22T09:48:20;99394.69;;;33.16;76.03
13080;BME280;6606;49.154;9.280;2023-06-22T09:51:02;99374.94;;;32.70;75.06
13080;BME280;6606;49.154;9.280;2023-06-22T09:53:45;99359.69;;;33.11;81.32
13080;BME280;6606;49.154;9.280;2023-06-22T09:56:27;99357.47;;;33.20;81.03
13080;BME280;6606;49.154;9.280;2023-06-22T09:59:10;99354.44;;;32.11;85.47
13080;BME280;6606;49.154;9.280;2023-06-22T10:01:52;99347.75;;;32.25;81.82
13080;BME280;6606;49.154;9.280;2023-06-22T10:04:33;99353.59;;;32.91;76.48
13080;BME280;6606;49.154;9.280;2023-06-22T10:07:15;99347.00;;;33.59;77.08
13080;BME280;6606;49.154;9.280;2023-06-22T10:09:58;99352.34;;;33.54;72.65
13080;BME280;6606;49.154;9.280;2023-06-22T10:12:46;99360.69;;;33.17;80.36
13080;BME280;6606;49.154;9.280;2023-06-22T10:15:27;99357.16;;;33.58;74.73
13080;BME280;6606;49.154;9.280;2023-06-22T10:18:09;99344.78;;;33.49;75.18
13080;BME280;6606;49.154;9.280;2023-06-22T10:20:51;99353.00;;;33.91;69.78
13080;BME280;6606;49.154;9.280;2023-06-22T10:23:33;99337.22;;;33.75;73.57
13080;BME280;6606;49.154;9.280;2023-06-22T10:26:16;99351.13;;;34.03;73.89
13080;BME280;6606;49.154;9.280;2023-06-22T10:28:58;99355.94;;;34.43;66.30
13080;BME280;6606;49.154;9.280;2023-06-22T10:31:40;99349.56;;;33.96;68.10
13080;BME280;6606;49.154;9.280;2023-06-22T10:34:21;99342.19;;;33.66;77.11
13080;BME280;6606;49.154;9.280;2023-06-22T10:37:03;99345.72;;;33.43;73.17
13080;BME280;6606;49.154;9.280;2023-06-22T10:39:45;99337.91;;;33.82;70.10
13080;BME280;6606;49.154;9.280;2023-06-22T10:42:28;99323.81;;;33.66;72.27
13080;BME280;6606;49.154;9.280;2023-06-22T10:45:10;99327.53;;;33.84;74.36
13080;BME280;6606;49.154;9.280;2023-06-22T10:47:52;99322.41;;;34.58;68.40
13080;BME280;6606;49.154;9.280;2023-06-22T10:50:33;99314.38;;;33.74;78.68
13080;BME280;6606;49.154;9.280;2023-06-22T10:53:15;99313.47;;;34.15;69.89
13080;BME280;6606;49.154;9.280;2023-06-22T10:55:57;99303.13;;;34.70;64.73
13080;BME280;6606;49.154;9.280;2023-06-22T10:58:40;99288.06;;;35.47;60.15
13080;BME280;6606;49.154;9.280;2023-06-22T11:01:22;99282.41;;;35.70;64.38
13080;BME280;6606;49.154;9.280;2023-06-22T11:04:03;99284.41;;;35.00;63.91
13080;BME280;6606;49.154;9.280;2023-06-22T11:06:45;99272.38;;;34.49;68.05
13080;BME280;6606;49.154;9.280;2023-06-22T11:09:27;99275.66;;;35.15;65.24
13080;BME280;6606;49.154;9.280;2023-06-22T11:12:09;99282.34;;;35.36;63.06
13080;BME280;6606;49.154;9.280;2023-06-22T11:14:52;99283.16;;;34.39;69.17
13080;BME280;6606;49.154;9.280;2023-06-22T11:17:34;99271.47;;;35.13;65.88
13080;BME280;6606;49.154;9.280;2023-06-22T11:20:15;99274.19;;;34.84;64.57
13080;BME280;6606;49.154;9.280;2023-06-22T11:22:57;99266.19;;;34.83;62.87
13080;BME280;6606;49.154;9.280;2023-06-22T11:25:39;99260.81;;;35.50;60.52
13080;BME280;6606;49.154;9.280;2023-06-22T11:28:22;99267.66;;;35.48;59.63
13080;BME280;6606;49.154;9.280;2023-06-22T11:31:05;99260.13;;;36.10;59.54
13080;BME280;6606;49.154;9.280;2023-06-22T11:33:47;99252.63;;;35.72;58.30
13080;BME280;6606;49.154;9.280;2023-06-22T11:36:29;99252.56;;;36.06;58.06
13080;BME280;6606;49.154;9.280;2023-06-22T11:39:13;99243.75;;;35.36;59.16
13080;BME280;6606;49.154;9.280;2023-06-22T11:41:55;99246.25;;;34.92;64.80
13080;BME280;6606;49.154;9.280;2023-06-22T11:44:37;99248.09;;;35.32;64.42
13080;BME280;6606;49.154;9.280;2023-06-22T11:47:20;99246.25;;;35.21;63.36
13080;BME280;6606;49.154;9.280;2023-06-22T11:50:02;99243.59;;;35.43;68.44
13080;BME280;6606;49.154;9.280;2023-06-22T11:52:44;99245.00;;;35.12;63.70
13080;BME280;6606;49.154;9.280;2023-06-22T11:55:25;99245.94;;;35.17;65.36
13080;BME280;6606;49.154;9.280;2023-06-22T11:58:07;99243.25;;;34.65;68.20
13080;BME280;6606;49.154;9.280;2023-06-22T12:00:49;99246.88;;;34.42;72.60
13080;BME280;6606;49.154;9.280;2023-06-22T12:03:33;99253.31;;;34.07;71.78
13080;BME280;6606;49.154;9.280;2023-06-22T12:06:15;99232.72;;;33.98;70.47
13080;BME280;6606;49.154;9.280;2023-06-22T12:08:57;99220.97;;;34.03;72.25
13080;BME280;6606;49.154;9.280;2023-06-22T12:11:39;99226.88;;;34.06;74.92
13080;BME280;6606;49.154;9.280;2023-06-22T12:14:20;99223.81;;;34.43;70.53
13080;BME280;6606;49.154;9.280;2023-06-22T12:17:02;99244.63;;;34.39;72.32
13080;BME280;6606;49.154;9.280;2023-06-22T12:19:45;99240.72;;;34.23;75.27
13080;BME280;6606;49.154;9.280;2023-06-22T12:22:27;99232.69;;;34.22;71.60
13080;BME280;6606;49.154;9.280;2023-06-22T12:25:09;99238.03;;;34.40;73.25
13080;BME280;6606;49.154;9.280;2023-06-22T12:27:50;99231.66;;;33.76;75.11
13080;BME280;6606;49.154;9.280;2023-06-22T12:30:33;99233.78;;;33.97;76.68
13080;BME280;6606;49.154;9.280;2023-06-22T12:33:15;99244.91;;;34.02;73.34
13080;BME280;6606;49.154;9.280;2023-06-22T12:35:57;99265.13;;;34.08;68.32
13080;BME280;6606;49.154;9.280;2023-06-22T12:38:39;99263.56;;;34.00;77.93
13080;BME280;6606;49.154;9.280;2023-06-22T12:41:21;99268.00;;;33.78;77.16
13080;BME280;6606;49.154;9.280;2023-06-22T12:44:03;99272.53;;;33.84;77.19
13080;BME280;6606;49.154;9.280;2023-06-22T12:46:44;99267.50;;;33.92;83.23
13080;BME280;6606;49.154;9.280;2023-06-22T12:49:26;99259.16;;;34.23;81.23
13080;BME280;6606;49.154;9.280;2023-06-22T12:52:12;99255.28;;;34.35;83.71
13080;BME280;6606;49.154;9.280;2023-06-22T12:54:54;99245.09;;;34.60;76.04
13080;BME280;6606;49.154;9.280;2023-06-22T12:57:35;99252.66;;;34.81;78.48
13080;BME280;6606;49.154;9.280;2023-06-22T13:00:17;99269.63;;;34.37;78.25
13080;BME280;6606;49.154;9.280;2023-06-22T13:03:00;99289.25;;;34.29;81.70
13080;BME280;6606;49.154;9.280;2023-06-22T13:05:41;99309.28;;;34.25;86.05
13080;BME280;6606;49.154;9.280;2023-06-22T13:08:24;99269.06;;;34.00;84.72
13080;BME280;6606;49.154;9.280;2023-06-22T13:11:06;99259.47;;;34.38;81.92
13080;BME280;6606;49.154;9.280;2023-06-22T13:13:48;99229.50;;;34.53;79.03
13080;BME280;6606;49.154;9.280;2023-06-22T13:16:29;99232.38;;;34.87;75.77
13080;BME280;6606;49.154;9.280;2023-06-22T13:19:11;99229.97;;;35.53;74.29
13080;BME280;6606;49.154;9.280;2023-06-22T13:21:53;99236.81;;;35.84;68.51
13080;BME280;6606;49.154;9.280;2023-06-22T13:24:36;99237.03;;;36.00;59.35
13080;BME280;6606;49.154;9.280;2023-06-22T13:27:17;99240.69;;;36.44;64.54
13080;BME280;6606;49.154;9.280;2023-06-22T13:29:59;99239.78;;;36.39;67.75
13080;BME280;6606;49.154;9.280;2023-06-22T13:32:41;99233.75;;;36.42;56.83
13080;BME280;6606;49.154;9.280;2023-06-22T13:35:23;99239.22;;;35.30;65.88
13080;BME280;6606;49.154;9.280;2023-06-22T13:38:05;99244.88;;;34.78;74.48
13080;BME280;6606;49.154;9.280;2023-06-22T13:40:48;99228.00;;;34.34;81.36
13080;BME280;6606;49.154;9.280;2023-06-22T13:43:30;99235.13;;;34.06;79.76
13080;BME280;6606;49.154;9.280;2023-06-22T13:46:11;99225.31;;;33.63;83.66
13080;BME280;6606;49.154;9.280;2023-06-22T13:48:53;99218.81;;;33.46;87.49
13080;BME280;6606;49.154;9.280;2023-06-22T13:51:36;99205.22;;;33.51;90.18
13080;BME280;6606;49.154;9.280;2023-06-22T13:54:17;99188.56;;;34.05;85.60
13080;BME280;6606;49.154;9.280;2023-06-22T13:57:00;99184.88;;;34.51;81.43
13080;BME280;6606;49.154;9.280;2023-06-22T13:59:42;99171.94;;;35.09;76.43
13080;BME280;6606;49.154;9.280;2023-06-22T14:02:25;99163.47;;;35.33;76.09
13080;BME280;6606;49.154;9.280;2023-06-22T14:05:08;99143.22;;;34.76;77.73
13080;BME280;6606;49.154;9.280;2023-06-22T14:07:51;99142.72;;;35.25;71.00
13080;BME280;6606;49.154;9.280;2023-06-22T14:10:32;99144.50;;;35.92;70.05
13080;BME280;6606;49.154;9.280;2023-06-22T14:13:16;99136.94;;;35.82;73.49
13080;BME280;6606;49.154;9.280;2023-06-22T14:15:57;99126.41;;;35.79;72.58
13080;BME280;6606;49.154;9.280;2023-06-22T14:18:39;99133.59;;;35.80;71.19
13080;BME280;6606;49.154;9.280;2023-06-22T14:21:20;99133.16;;;35.50;72.17
13080;BME280;6606;49.154;9.280;2023-06-22T14:24:03;99135.31;;;35.64;69.59
13080;BME280;6606;49.154;9.280;2023-06-22T14:26:44;99140.31;;;36.28;69.02